FearleSS I — V7HT2 — position and weather

sailwx.info

Track history (hours):
 
Tides and Currents Weather Stations Pressure Air Temp Water Temp Dewpoint Dewpoint Depression Visibility Wind Speed Wind Dir Waves Ship Positions

FearleSS I

Last reported at 2017-Dec-18 07:01 UTC. Time now 2017-Dec-18 07:01 UTC.
Position N 37°55' E 023°05'.

Length 97 m; draft 5.7 m.

Type: Tanker. MMSI: 538006337.

Date/timePositionNaut miles runAvg speedWind from/ knotsBaromVisibWave heightAir tempDewpointWater temp
2017-Dec-18 07:01N 37°55' E 023°05'0 0.0
2017-Dec-18 06:28N 37°55' E 023°05'0 0.0
2017-Dec-18 05:58N 37°55' E 023°05'0 0.0
2017-Dec-18 05:28N 37°55' E 023°05'0 0.0
2017-Dec-18 04:58N 37°55' E 023°05'0 0.0
2017-Dec-18 04:28N 37°55' E 023°05'0 0.0
2017-Dec-18 03:58N 37°55' E 023°05'0 0.0
2017-Dec-18 03:28N 37°55' E 023°05'0 0.0
2017-Dec-18 02:58N 37°55' E 023°05'0 0.0
2017-Dec-18 02:28N 37°55' E 023°05'0 0.0
2017-Dec-18 01:58N 37°55' E 023°05'0 0.0
2017-Dec-18 01:28N 37°55' E 023°05'0 0.0
2017-Dec-18 00:58N 37°55' E 023°05'0 0.0
2017-Dec-18 00:28N 37°55' E 023°05'0 0.0
2017-Dec-17 23:58N 37°55' E 023°05'0 0.0
2017-Dec-17 23:28N 37°55' E 023°05'0 0.0
2017-Dec-17 22:58N 37°55' E 023°05'0 0.0
2017-Dec-17 22:28N 37°55' E 023°05'0 0.0
2017-Dec-17 21:58N 37°55' E 023°05'0 0.0
2017-Dec-17 21:28N 37°55' E 023°05'0 0.0
2017-Dec-17 20:58N 37°55' E 023°05'0 0.0
2017-Dec-17 20:28N 37°55' E 023°05'0 0.0
2017-Dec-17 19:58N 37°55' E 023°05'0 0.0
2017-Dec-17 19:28N 37°55' E 023°05'0 0.0
2017-Dec-17 18:58N 37°55' E 023°05'0 0.0
2017-Dec-17 18:28N 37°55' E 023°05'0 0.0
2017-Dec-17 17:58N 37°55' E 023°05'0 0.0
2017-Dec-17 17:28N 37°55' E 023°05'0 0.0
2017-Dec-17 16:58N 37°55' E 023°05'0 0.0
2017-Dec-17 16:28N 37°55' E 023°05'0 0.0
2017-Dec-17 15:58N 37°55' E 023°05'0 0.0
2017-Dec-17 15:28N 37°55' E 023°05'0 0.0
2017-Dec-17 14:58N 37°55' E 023°05'0 0.0
2017-Dec-17 14:28N 37°55' E 023°05'0 0.0
2017-Dec-17 13:58N 37°55' E 023°05'0 0.0
2017-Dec-17 13:28N 37°55' E 023°05'0 0.0
2017-Dec-17 12:58N 37°55' E 023°05'0 0.0
2017-Dec-17 12:28N 37°55' E 023°05'0 0.0
2017-Dec-17 11:58N 37°55' E 023°05'0 0.0
2017-Dec-17 11:28N 37°55' E 023°05'0 0.0
2017-Dec-17 10:58N 37°55' E 023°05'0 0.0
2017-Dec-17 10:28N 37°55' E 023°05'0 0.0
2017-Dec-17 09:58N 37°55' E 023°05'0 0.0
2017-Dec-17 09:28N 37°55' E 023°05'0 0.0
2017-Dec-17 08:58N 37°55' E 023°05'0 0.0
2017-Dec-17 08:28N 37°55' E 023°05'0 0.0
2017-Dec-17 07:58N 37°55' E 023°05'0 0.0
2017-Dec-17 07:28N 37°55' E 023°05'0 0.0
2017-Dec-17 07:01N 37°55' E 023°05'1 1.2
2017-Dec-17 06:31N 37°54' E 023°05'1 1.7
2017-Dec-17 05:58N 37°54' E 023°04'0 0.1
2017-Dec-17 05:28N 37°54' E 023°04'0 0.1
2017-Dec-17 04:58N 37°54' E 023°04'0 0.2
2017-Dec-17 04:28N 37°54' E 023°04'0 0.0
2017-Dec-17 03:58N 37°54' E 023°04'0 0.1
2017-Dec-17 03:28N 37°54' E 023°04'0 0.1
2017-Dec-17 02:58N 37°54' E 023°04'0 0.2
2017-Dec-17 02:28N 37°54' E 023°04'0 0.1
2017-Dec-17 01:58N 37°55' E 023°04'0 0.1
2017-Dec-17 01:28N 37°55' E 023°04'0 0.0
2017-Dec-17 00:58N 37°55' E 023°04'0 0.2
2017-Dec-17 00:30N 37°54' E 023°04'2 4.3
2017-Dec-17 00:01N 37°54' E 023°07'4 7.3
2017-Dec-16 23:31N 37°53' E 023°11'4 8.8
2017-Dec-16 23:01N 37°52' E 023°17'4 8.9
2017-Dec-16 22:30N 37°51' E 023°22'4 8.8
2017-Dec-16 22:00N 37°51' E 023°28'4 8.8
2017-Dec-16 21:30N 37°51' E 023°33'4 8.4
2017-Dec-16 21:01N 37°51' E 023°38'5 9.4
2017-Dec-16 20:30N 37°47' E 023°42'5 9.8
2017-Dec-16 20:00N 37°42' E 023°44'710.0
2017-Dec-16 19:21N 37°36' E 023°48'3010.1
2017-Dec-16 16:21N 37°06' E 023°46'4 9.7
2017-Dec-16 15:57N 37°02' E 023°45'  
2017-Dec-09 10:32N 35°56' E 014°49'0 8.7
2017-Dec-09 10:29N 35°56' E 014°48'510.9
2017-Dec-09 09:59N 35°55' E 014°42'511.1
2017-Dec-09 09:30N 35°55' E 014°35'  
Track history (hours):
 
Tides and Currents Weather Stations Pressure Air Temp Water Temp Dewpoint Dewpoint Depression Visibility Wind Speed Wind Dir Waves Ship Positions

FearleSS I

Last reported at 2017-Dec-18 07:01 UTC. Time now 2017-Dec-18 07:01 UTC.
Position N 37°55' E 023°05'.

Length 97 m; draft 5.7 m.

Type: Tanker. MMSI: 538006337.

Date/timePositionNaut miles runAvg speedWind from/ knotsBaromVisibWave heightAir tempDewpointWater temp
2017-Dec-18 07:01N 37°55' E 023°05'0 0.0
2017-Dec-18 06:28N 37°55' E 023°05'0 0.0
2017-Dec-18 05:58N 37°55' E 023°05'0 0.0
2017-Dec-18 05:28N 37°55' E 023°05'0 0.0
2017-Dec-18 04:58N 37°55' E 023°05'0 0.0
2017-Dec-18 04:28N 37°55' E 023°05'0 0.0
2017-Dec-18 03:58N 37°55' E 023°05'0 0.0
2017-Dec-18 03:28N 37°55' E 023°05'0 0.0
2017-Dec-18 02:58N 37°55' E 023°05'0 0.0
2017-Dec-18 02:28N 37°55' E 023°05'0 0.0
2017-Dec-18 01:58N 37°55' E 023°05'0 0.0
2017-Dec-18 01:28N 37°55' E 023°05'0 0.0
2017-Dec-18 00:58N 37°55' E 023°05'0 0.0
2017-Dec-18 00:28N 37°55' E 023°05'0 0.0
2017-Dec-17 23:58N 37°55' E 023°05'0 0.0
2017-Dec-17 23:28N 37°55' E 023°05'0 0.0
2017-Dec-17 22:58N 37°55' E 023°05'0 0.0
2017-Dec-17 22:28N 37°55' E 023°05'0 0.0
2017-Dec-17 21:58N 37°55' E 023°05'0 0.0
2017-Dec-17 21:28N 37°55' E 023°05'0 0.0
2017-Dec-17 20:58N 37°55' E 023°05'0 0.0
2017-Dec-17 20:28N 37°55' E 023°05'0 0.0
2017-Dec-17 19:58N 37°55' E 023°05'0 0.0
2017-Dec-17 19:28N 37°55' E 023°05'0 0.0
2017-Dec-17 18:58N 37°55' E 023°05'0 0.0
2017-Dec-17 18:28N 37°55' E 023°05'0 0.0
2017-Dec-17 17:58N 37°55' E 023°05'0 0.0
2017-Dec-17 17:28N 37°55' E 023°05'0 0.0
2017-Dec-17 16:58N 37°55' E 023°05'0 0.0
2017-Dec-17 16:28N 37°55' E 023°05'0 0.0
2017-Dec-17 15:58N 37°55' E 023°05'0 0.0
2017-Dec-17 15:28N 37°55' E 023°05'0 0.0
2017-Dec-17 14:58N 37°55' E 023°05'0 0.0
2017-Dec-17 14:28N 37°55' E 023°05'0 0.0
2017-Dec-17 13:58N 37°55' E 023°05'0 0.0
2017-Dec-17 13:28N 37°55' E 023°05'0 0.0
2017-Dec-17 12:58N 37°55' E 023°05'0 0.0
2017-Dec-17 12:28N 37°55' E 023°05'0 0.0
2017-Dec-17 11:58N 37°55' E 023°05'0 0.0
2017-Dec-17 11:28N 37°55' E 023°05'0 0.0
2017-Dec-17 10:58N 37°55' E 023°05'0 0.0
2017-Dec-17 10:28N 37°55' E 023°05'0 0.0
2017-Dec-17 09:58N 37°55' E 023°05'0 0.0
2017-Dec-17 09:28N 37°55' E 023°05'0 0.0
2017-Dec-17 08:58N 37°55' E 023°05'0 0.0
2017-Dec-17 08:28N 37°55' E 023°05'0 0.0
2017-Dec-17 07:58N 37°55' E 023°05'0 0.0
2017-Dec-17 07:28N 37°55' E 023°05'0 0.0
2017-Dec-17 07:01N 37°55' E 023°05'1 1.2
2017-Dec-17 06:31N 37°54' E 023°05'1 1.7
2017-Dec-17 05:58N 37°54' E 023°04'0 0.1
2017-Dec-17 05:28N 37°54' E 023°04'0 0.1
2017-Dec-17 04:58N 37°54' E 023°04'0 0.2
2017-Dec-17 04:28N 37°54' E 023°04'0 0.0
2017-Dec-17 03:58N 37°54' E 023°04'0 0.1
2017-Dec-17 03:28N 37°54' E 023°04'0 0.1
2017-Dec-17 02:58N 37°54' E 023°04'0 0.2
2017-Dec-17 02:28N 37°54' E 023°04'0 0.1
2017-Dec-17 01:58N 37°55' E 023°04'0 0.1
2017-Dec-17 01:28N 37°55' E 023°04'0 0.0
2017-Dec-17 00:58N 37°55' E 023°04'0 0.2
2017-Dec-17 00:30N 37°54' E 023°04'2 4.3
2017-Dec-17 00:01N 37°54' E 023°07'4 7.3
2017-Dec-16 23:31N 37°53' E 023°11'4 8.8
2017-Dec-16 23:01N 37°52' E 023°17'4 8.9
2017-Dec-16 22:30N 37°51' E 023°22'4 8.8
2017-Dec-16 22:00N 37°51' E 023°28'4 8.8
2017-Dec-16 21:30N 37°51' E 023°33'4 8.4
2017-Dec-16 21:01N 37°51' E 023°38'5 9.4
2017-Dec-16 20:30N 37°47' E 023°42'5 9.8
2017-Dec-16 20:00N 37°42' E 023°44'710.0
2017-Dec-16 19:21N 37°36' E 023°48'3010.1
2017-Dec-16 16:21N 37°06' E 023°46'4 9.7
2017-Dec-16 15:57N 37°02' E 023°45'  
2017-Dec-09 10:32N 35°56' E 014°49'0 8.7
2017-Dec-09 10:29N 35°56' E 014°48'510.9
2017-Dec-09 09:59N 35°55' E 014°42'511.1
2017-Dec-09 09:30N 35°55' E 014°35'  

Dump ship's entire track history